Time;durP1;ratioP1;P1;durP2;ratioP2;P2;SDS_P1;SDS_P2;PMS_P1;PMS_P2;Temp;Humidity;BMP_temperature;BMP_pressure;BME280_temperature;BME280_humidity;BME280_pressure;Samples;Min_cycle;Max_cycle;Signal;HPM_P1;HPM_P2
2023/08/23 00:01:11;;;;;;;9.98;6.75;;;;;;;;;;5070709;28;20330;-78
2023/08/23 00:03:36;;;;;;;12.30;6.65;;;;;;;;;;5071942;28;20101;-78
2023/08/23 00:06:02;;;;;;;7.43;6.65;;;;;;;;;;5071754;28;20476;-78
2023/08/23 00:08:27;;;;;;;11.57;6.53;;;;;;;;;;5070148;28;20181;-77
2023/08/23 00:10:54;;;;;;;8.90;6.30;;;;;;;;;;5072174;28;20020;-78
2023/08/23 00:13:21;;;;;;;9.35;7.97;;;;;;;;;;5070467;28;20020;-79
2023/08/23 00:15:46;;;;;;;10.98;6.63;;;;;;;;;;5071792;28;20070;-79
2023/08/23 00:18:12;;;;;;;9.05;6.57;;;;;;;;;;5070842;28;20028;-79
2023/08/23 00:20:37;;;;;;;9.25;6.25;;;;;;;;;;5070187;28;20219;-79
2023/08/23 00:23:04;;;;;;;8.75;6.38;;;;;;;;;;5070349;28;20082;-78
2023/08/23 00:25:29;;;;;;;10.05;6.10;;;;;;;;;;5069859;28;20032;-79
2023/08/23 00:27:57;;;;;;;10.40;6.32;;;;;;;;;;5071811;28;20020;-76
2023/08/23 00:30:22;;;;;;;12.95;6.63;;;;;;;;;;5071630;28;20029;-78
2023/08/23 00:32:48;;;;;;;10.95;6.10;;;;;;;;;;5069605;28;20028;-80
2023/08/23 00:35:14;;;;;;;9.45;6.45;;;;;;;;;;5053634;28;20033;-78
2023/08/23 00:37:39;;;;;;;10.32;5.97;;;;;;;;;;5070328;28;20111;-79
2023/08/23 00:40:09;;;;;;;11.60;6.72;;;;;;;;;;5070141;28;20025;-78
2023/08/23 00:42:35;;;;;;;8.18;6.70;;;;;;;;;;5071237;28;20025;-78
2023/08/23 00:45:00;;;;;;;8.65;6.70;;;;;;;;;;5071415;28;20025;-78
2023/08/23 00:47:26;;;;;;;10.23;7.05;;;;;;;;;;5071138;28;20036;-79
2023/08/23 00:49:52;;;;;;;14.85;6.50;;;;;;;;;;5071226;28;20134;-78
2023/08/23 00:52:18;;;;;;;9.98;7.00;;;;;;;;;;5071861;28;20316;-78
2023/08/23 00:54:44;;;;;;;9.85;6.38;;;;;;;;;;5070066;28;20031;-78
2023/08/23 00:57:10;;;;;;;9.30;6.13;;;;;;;;;;5070785;28;20123;-78
2023/08/23 00:59:36;;;;;;;9.77;6.03;;;;;;;;;;5070885;28;20127;-77
2023/08/23 01:02:02;;;;;;;11.23;5.95;;;;;;;;;;5070907;28;20028;-76
2023/08/23 01:04:28;;;;;;;11.45;6.00;;;;;;;;;;5069717;28;20035;-76
2023/08/23 01:07:05;;;;;;;8.93;6.05;;;;;;;;;;5070777;28;20028;-78
2023/08/23 01:09:41;;;;;;;11.38;6.15;;;;;;;;;;5070637;28;20431;-78
2023/08/23 01:12:10;;;;;;;8.07;5.65;;;;;;;;;;5071028;28;20037;-79
2023/08/23 01:14:45;;;;;;;7.25;5.75;;;;;;;;;;5069421;28;20021;-78
2023/08/23 01:17:12;;;;;;;7.32;6.03;;;;;;;;;;5069269;28;20031;-77
2023/08/23 01:19:46;;;;;;;10.43;6.20;;;;;;;;;;5069262;28;20060;-78
2023/08/23 01:22:19;;;;;;;9.75;5.63;;;;;;;;;;5071178;28;20021;-77
2023/08/23 01:24:47;;;;;;;9.60;6.05;;;;;;;;;;5069112;28;20044;-78
2023/08/23 01:27:12;;;;;;;9.43;6.75;;;;;;;;;;5070682;28;20024;-79
2023/08/23 01:29:38;;;;;;;8.32;5.97;;;;;;;;;;5069050;28;20385;-78
2023/08/23 01:32:17;;;;;;;8.73;6.22;;;;;;;;;;5070678;28;20317;-77
2023/08/23 01:34:50;;;;;;;11.63;6.75;;;;;;;;;;5068787;28;20028;-77
2023/08/23 01:37:16;;;;;;;10.25;6.38;;;;;;;;;;5068668;28;20023;-78
2023/08/23 01:39:42;;;;;;;13.68;7.10;;;;;;;;;;5070175;28;20081;-78
2023/08/23 01:42:09;;;;;;;13.00;6.63;;;;;;;;;;5068789;28;20119;-80
2023/08/23 01:44:34;;;;;;;15.02;7.20;;;;;;;;;;5069818;28;20033;-79
2023/08/23 01:47:00;;;;;;;11.60;6.30;;;;;;;;;;5069019;28;20081;-78
2023/08/23 01:49:25;;;;;;;10.93;6.32;;;;;;;;;;5069329;28;20017;-78
2023/08/23 01:51:51;;;;;;;11.95;6.85;;;;;;;;;;5069835;28;20024;-79
2023/08/23 01:54:16;;;;;;;8.13;5.55;;;;;;;;;;5070380;28;20108;-78
2023/08/23 01:56:43;;;;;;;11.30;6.20;;;;;;;;;;5064730;28;20063;-78
2023/08/23 01:59:09;;;;;;;10.18;5.70;;;;;;;;;;5050345;28;20112;-79
2023/08/23 02:01:34;;;;;;;9.73;6.28;;;;;;;;;;5048293;28;20039;-80
2023/08/23 02:04:00;;;;;;;10.07;6.65;;;;;;;;;;5048309;28;20033;-79
2023/08/23 02:06:25;;;;;;;7.53;5.30;;;;;;;;;;5049917;28;20096;-78
2023/08/23 02:08:51;;;;;;;12.15;6.72;;;;;;;;;;5049655;28;20104;-77
2023/08/23 02:11:16;;;;;;;8.00;5.72;;;;;;;;;;5048470;28;20110;-77
2023/08/23 02:13:42;;;;;;;11.05;6.25;;;;;;;;;;5048531;28;20499;-77
2023/08/23 02:16:07;;;;;;;11.32;6.68;;;;;;;;;;5048321;28;20075;-78
2023/08/23 02:18:32;;;;;;;8.65;5.82;;;;;;;;;;5048262;28;20457;-79
2023/08/23 02:20:58;;;;;;;10.73;6.32;;;;;;;;;;5049399;28;20028;-78
2023/08/23 02:23:25;;;;;;;10.35;6.55;;;;;;;;;;5048579;28;20029;-78
2023/08/23 02:25:51;;;;;;;8.43;6.13;;;;;;;;;;5048468;28;20536;-77
2023/08/23 02:28:16;;;;;;;8.25;6.28;;;;;;;;;;5048630;28;20119;-78
2023/08/23 02:30:42;;;;;;;10.18;6.50;;;;;;;;;;5049215;28;20167;-77
2023/08/23 02:33:07;;;;;;;26.85;7.60;;;;;;;;;;5049219;28;20060;-78
2023/08/23 02:35:33;;;;;;;10.07;6.00;;;;;;;;;;5049480;28;20025;-77
2023/08/23 02:38:01;;;;;;;8.73;5.63;;;;;;;;;;5049873;28;20033;-77
2023/08/23 02:40:27;;;;;;;11.52;5.97;;;;;;;;;;5049859;28;20177;-78
2023/08/23 02:42:55;;;;;;;10.32;6.05;;;;;;;;;;5049391;28;20431;-77
2023/08/23 02:45:21;;;;;;;24.52;7.30;;;;;;;;;;5049922;28;20082;-78
2023/08/23 02:47:46;;;;;;;12.63;5.60;;;;;;;;;;5047966;28;20617;-77
2023/08/23 02:50:12;;;;;;;14.05;6.35;;;;;;;;;;5051138;28;20024;-78
2023/08/23 02:52:37;;;;;;;8.88;5.75;;;;;;;;;;5047493;28;20043;-79
2023/08/23 02:55:03;;;;;;;9.48;6.00;;;;;;;;;;5032886;28;20021;-78
2023/08/23 02:57:28;;;;;;;7.72;5.75;;;;;;;;;;5031836;28;20072;-77
2023/08/23 02:59:54;;;;;;;9.32;5.80;;;;;;;;;;5045868;28;20032;-78
2023/08/23 03:02:19;;;;;;;7.82;5.18;;;;;;;;;;5051217;28;20072;-77
2023/08/23 03:04:45;;;;;;;15.60;6.50;;;;;;;;;;5047309;28;20025;-79
2023/08/23 03:07:11;;;;;;;9.05;5.55;;;;;;;;;;5031624;28;20106;-79
2023/08/23 03:09:36;;;;;;;9.27;5.80;;;;;;;;;;5031371;28;20083;-78
2023/08/23 03:12:02;;;;;;;12.90;5.75;;;;;;;;;;5031766;28;20116;-78
2023/08/23 03:14:29;;;;;;;7.78;5.32;;;;;;;;;;5032165;28;20045;-78
2023/08/23 03:16:55;;;;;;;9.35;4.95;;;;;;;;;;5033193;28;20029;-79
2023/08/23 03:19:20;;;;;;;15.13;5.65;;;;;;;;;;5031920;28;20029;-78
2023/08/23 03:21:46;;;;;;;12.13;5.50;;;;;;;;;;5030798;28;20129;-79
2023/08/23 03:24:11;;;;;;;12.68;5.15;;;;;;;;;;5031573;28;20211;-79
2023/08/23 03:26:37;;;;;;;7.72;5.30;;;;;;;;;;5032627;28;20053;-77
2023/08/23 03:29:02;;;;;;;6.75;5.00;;;;;;;;;;5032725;28;20059;-78
2023/08/23 03:31:28;;;;;;;8.75;5.13;;;;;;;;;;5031684;28;20040;-78
2023/08/23 03:33:53;;;;;;;12.70;5.45;;;;;;;;;;5032644;28;20026;-80
2023/08/23 03:36:19;;;;;;;8.43;4.65;;;;;;;;;;5032429;28;20030;-78
2023/08/23 03:38:44;;;;;;;7.55;5.28;;;;;;;;;;5032080;28;20493;-78
2023/08/23 03:41:14;;;;;;;8.43;4.65;;;;;;;;;;5032337;28;20112;-78
2023/08/23 03:43:39;;;;;;;8.95;5.15;;;;;;;;;;5032304;28;20445;-79
2023/08/23 03:46:05;;;;;;;10.75;5.00;;;;;;;;;;5032545;28;20148;-79
2023/08/23 03:48:30;;;;;;;9.50;5.50;;;;;;;;;;5030951;28;20021;-78
2023/08/23 03:50:59;;;;;;;11.82;5.05;;;;;;;;;;5031546;28;20026;-77
2023/08/23 03:53:26;;;;;;;12.20;4.80;;;;;;;;;;5014385;28;20408;-79
2023/08/23 03:55:52;;;;;;;6.32;4.57;;;;;;;;;;5032600;28;20092;-79
2023/08/23 03:58:17;;;;;;;9.55;5.68;;;;;;;;;;5030908;28;20370;-79
2023/08/23 04:00:59;;;;;;;9.65;4.85;;;;;;;;;;5031745;28;20056;-78
2023/08/23 04:03:24;;;;;;;10.13;5.35;;;;;;;;;;5027662;28;20512;-79
2023/08/23 04:05:50;;;;;;;13.70;5.68;;;;;;;;;;5031807;28;20013;-79
2023/08/23 04:08:16;;;;;;;9.05;4.72;;;;;;;;;;5032194;28;20029;-79
2023/08/23 04:10:51;;;;;;;8.48;5.15;;;;;;;;;;5030456;28;20033;-78
2023/08/23 04:13:19;;;;;;;9.55;5.80;;;;;;;;;;5031970;28;20023;-76
2023/08/23 04:15:45;;;;;;;8.40;5.50;;;;;;;;;;5032300;28;20433;-78
2023/08/23 04:18:11;;;;;;;6.05;4.68;;;;;;;;;;5030979;28;20469;-77
2023/08/23 04:20:37;;;;;;;7.40;5.50;;;;;;;;;;5030461;28;20025;-79
2023/08/23 04:23:03;;;;;;;11.32;5.60;;;;;;;;;;5030709;28;20021;-78
2023/08/23 04:25:29;;;;;;;10.55;5.68;;;;;;;;;;5030572;28;20115;-78
2023/08/23 04:27:54;;;;;;;11.50;5.07;;;;;;;;;;5031697;28;20104;-77
2023/08/23 04:30:20;;;;;;;6.97;5.40;;;;;;;;;;5030439;28;20033;-79
2023/08/23 04:32:45;;;;;;;10.95;6.25;;;;;;;;;;5031220;28;20044;-80
2023/08/23 04:35:11;;;;;;;8.30;5.63;;;;;;;;;;5034259;28;20021;-78
2023/08/23 04:37:37;;;;;;;14.05;6.45;;;;;;;;;;5051390;28;20078;-79
2023/08/23 04:40:06;;;;;;;8.98;6.28;;;;;;;;;;5051302;28;20029;-78
2023/08/23 04:42:33;;;;;;;12.05;5.95;;;;;;;;;;5049771;28;20036;-78
2023/08/23 04:45:00;;;;;;;8.55;5.72;;;;;;;;;;5051624;28;20021;-78
2023/08/23 04:47:30;;;;;;;11.40;6.15;;;;;;;;;;5050187;28;20048;-77
2023/08/23 04:49:56;;;;;;;9.30;6.20;;;;;;;;;;5051949;28;20417;-78
2023/08/23 04:52:22;;;;;;;9.90;6.28;;;;;;;;;;5051498;28;20021;-78
2023/08/23 04:54:47;;;;;;;10.85;5.72;;;;;;;;;;5050480;28;20041;-78
2023/08/23 04:57:13;;;;;;;9.68;6.05;;;;;;;;;;5050893;28;20083;-78
2023/08/23 04:59:39;;;;;;;10.05;5.53;;;;;;;;;;5050982;28;20033;-79
2023/08/23 05:02:04;;;;;;;9.25;6.60;;;;;;;;;;5051513;28;20032;-78
2023/08/23 05:04:30;;;;;;;10.90;6.57;;;;;;;;;;5049736;28;20028;-79
2023/08/23 05:06:55;;;;;;;17.50;6.20;;;;;;;;;;5049549;28;20412;-78
2023/08/23 05:09:21;;;;;;;13.75;6.35;;;;;;;;;;5049589;28;20021;-77
2023/08/23 05:11:47;;;;;;;12.10;6.40;;;;;;;;;;5049252;28;20124;-78
2023/08/23 05:14:12;;;;;;;13.90;5.95;;;;;;;;;;5048908;28;20023;-78
2023/08/23 05:16:38;;;;;;;12.88;5.90;;;;;;;;;;5050607;28;20017;-78
2023/08/23 05:19:03;;;;;;;11.20;6.80;;;;;;;;;;5050601;28;20029;-79
2023/08/23 05:21:29;;;;;;;11.43;6.28;;;;;;;;;;5051398;28;20117;-78
2023/08/23 05:23:54;;;;;;;14.75;5.32;;;;;;;;;;5039936;28;20120;-81
2023/08/23 05:26:20;;;;;;;10.38;6.18;;;;;;;;;;5044133;28;20040;-77
2023/08/23 05:28:45;;;;;;;12.45;5.55;;;;;;;;;;5049726;28;20036;-79
2023/08/23 05:31:11;;;;;;;10.73;5.80;;;;;;;;;;5049139;28;20033;-79
2023/08/23 05:33:40;;;;;;;10.10;5.13;;;;;;;;;;5049037;28;20067;-79
2023/08/23 05:36:05;;;;;;;13.25;5.65;;;;;;;;;;5049340;28;20112;-78
2023/08/23 05:38:31;;;;;;;9.38;5.70;;;;;;;;;;5050174;28;20162;-78
2023/08/23 05:40:56;;;;;;;8.85;5.57;;;;;;;;;;5048736;28;20025;-78
2023/08/23 05:43:22;;;;;;;12.93;5.57;;;;;;;;;;5058086;28;20577;-77
2023/08/23 05:45:50;;;;;;;8.85;4.80;;;;;;;;;;5070297;28;20423;-80
2023/08/23 05:48:16;;;;;;;10.30;5.10;;;;;;;;;;5061840;28;20021;-78
2023/08/23 05:50:41;;;;;;;9.75;5.03;;;;;;;;;;5042485;28;20043;-79
2023/08/23 05:53:10;;;;;;;8.63;5.45;;;;;;;;;;5050768;28;20029;-78
2023/08/23 05:55:36;;;;;;;13.50;5.47;;;;;;;;;;5048015;28;20056;-78
2023/08/23 05:58:03;;;;;;;11.25;5.05;;;;;;;;;;5054404;28;20077;-79
2023/08/23 06:00:29;;;;;;;9.30;5.32;;;;;;;;;;5055610;28;20030;-80
2023/08/23 06:02:54;;;;;;;18.98;5.68;;;;;;;;;;5052694;28;20519;-78
2023/08/23 06:05:20;;;;;;;7.85;4.72;;;;;;;;;;5058865;28;20147;-79
2023/08/23 06:07:45;;;;;;;12.32;5.60;;;;;;;;;;5048382;28;20108;-79
2023/08/23 06:10:12;;;;;;;7.25;4.85;;;;;;;;;;5069915;28;20567;-79
2023/08/23 06:12:37;;;;;;;10.77;4.90;;;;;;;;;;5068870;28;20024;-79
2023/08/23 06:15:04;;;;;;;7.88;5.35;;;;;;;;;;5055132;28;20048;-79
2023/08/23 06:17:30;;;;;;;7.75;5.30;;;;;;;;;;5040065;28;20560;-81
2023/08/23 06:19:55;;;;;;;12.10;4.47;;;;;;;;;;5038859;28;20119;-80
2023/08/23 06:22:21;;;;;;;10.77;5.40;;;;;;;;;;5046545;28;20053;-80
2023/08/23 06:24:48;;;;;;;13.32;5.57;;;;;;;;;;5059374;28;20383;-79
2023/08/23 06:27:14;;;;;;;20.55;6.30;;;;;;;;;;5052555;28;20029;-81
2023/08/23 06:29:40;;;;;;;9.98;4.85;;;;;;;;;;5054772;28;20090;-81
2023/08/23 06:32:07;;;;;;;9.00;4.88;;;;;;;;;;5043476;28;20040;-81
2023/08/23 06:34:33;;;;;;;16.17;5.95;;;;;;;;;;5051857;28;20036;-81
2023/08/23 06:36:59;;;;;;;12.50;4.75;;;;;;;;;;5049946;28;20021;-81
2023/08/23 06:39:24;;;;;;;7.45;4.72;;;;;;;;;;5060095;28;20489;-80
2023/08/23 06:41:50;;;;;;;7.38;4.25;;;;;;;;;;5063012;28;20060;-80
2023/08/23 06:44:15;;;;;;;6.90;3.85;;;;;;;;;;5047853;28;20450;-81
2023/08/23 06:46:42;;;;;;;7.47;4.53;;;;;;;;;;5057077;28;20594;-80
2023/08/23 06:49:07;;;;;;;13.02;4.28;;;;;;;;;;5058077;28;20029;-79
2023/08/23 06:51:33;;;;;;;16.17;4.82;;;;;;;;;;5038846;28;20115;-82
2023/08/23 06:53:58;;;;;;;7.32;4.40;;;;;;;;;;5057235;28;20423;-81
2023/08/23 06:56:25;;;;;;;10.95;4.60;;;;;;;;;;5050237;28;20071;-81
2023/08/23 06:58:51;;;;;;;9.95;4.68;;;;;;;;;;5047051;28;20059;-81
2023/08/23 07:01:18;;;;;;;6.93;4.38;;;;;;;;;;5051552;28;20029;-80
2023/08/23 07:10:11;;;;;;;;;;;;;;;;;;;;;
2023/08/23 07:16:24;;;;;;;7.68;4.35;;;;;;;;;;4959742;28;20039;-76
2023/08/23 07:19:38;;;;;;;;;;;;;;;;;;;;;
2023/08/23 07:22:42;;;;;;;12.57;4.25;;;;;;;;;;5054038;28;20116;-78
2023/08/23 07:25:12;;;;;;;12.20;4.22;;;;;;;;;;4970619;28;20065;-80
2023/08/23 07:28:27;;;;;;;10.70;4.15;;;;;;;;;;5048263;28;20045;-79
2023/08/23 07:31:38;;;;;;;;;;;;;;;;;;;;;
2023/08/23 07:34:35;;;;;;;7.75;4.05;;;;;;;;;;5059866;28;20104;-76
2023/08/23 07:37:29;;;;;;;6.93;3.67;;;;;;;;;;5055076;28;20103;-79
2023/08/23 07:43:18;;;;;;;7.55;3.90;;;;;;;;;;5055532;28;20046;-79
2023/08/23 07:45:58;;;;;;;14.45;4.25;;;;;;;;;;5047390;28;20040;-80
2023/08/23 07:52:05;;;;;;;;;;;;;;;;;;;;;
2023/08/23 07:55:20;;;;;;;5.00;3.78;;;;;;;;;;4933561;29;20044;-77
2023/08/23 08:15:05;;;;;;;5.32;2.70;;;;;;;;;;4926628;29;20071;-82
2023/08/23 08:17:59;;;;;;;5.93;3.05;;;;;;;;;;4907562;29;20520;-82
2023/08/23 08:21:36;;;;;;;6.93;3.22;;;;;;;;;;4921934;29;20469;-81
2023/08/23 08:24:17;;;;;;;3.47;2.67;;;;;;;;;;4891544;29;20064;-82
2023/08/23 08:27:01;;;;;;;;;;;;;;;;;;4911682;29;20083;-82
2023/08/23 08:29:44;;;;;;;9.23;3.17;;;;;;;;;;4926249;29;19915;-81
2023/08/23 08:32:32;;;;;;;;;;;;;;;;;;;;;
2023/08/23 08:36:16;;;;;;;;;;;;;;;;;;;;;
2023/08/23 08:42:46;;;;;;;8.63;3.45;;;;;;;;;;4943713;28;20510;-82
2023/08/23 08:46:09;;;;;;;;;;;;;;;;;;;;;
2023/08/23 08:49:03;;;;;;;;;;;;;;;;;;;;;
2023/08/23 08:51:47;;;;;;;7.03;3.95;;;;;;;;;;4993865;28;20097;-80
2023/08/23 08:54:32;;;;;;;;;;;;;;;;;;5001200;28;20041;-80
2023/08/23 09:00:55;;;;;;;5.15;3.08;;;;;;;;;;5058369;28;20120;-80
2023/08/23 09:03:36;;;;;;;;;;;;;;;;;;;;;
2023/08/23 09:06:38;;;;;;;;;;;;;;;;;;;;;
2023/08/23 09:09:39;;;;;;;8.57;3.72;;;;;;;;;;5060493;28;20120;-80
2023/08/23 09:12:20;;;;;;;6.60;4.03;;;;;;;;;;5045075;28;20036;-79
2023/08/23 09:15:03;;;;;;;5.25;3.22;;;;;;;;;;5060088;28;20112;-79
2023/08/23 09:21:27;;;;;;;11.20;3.15;;;;;;;;;;5044467;28;20075;-83
2023/08/23 09:24:12;;;;;;;;;;;;;;;;;;;;;
2023/08/23 09:27:45;;;;;;;;;;;;;;;;;;;;;
2023/08/23 09:30:53;;;;;;;;;;;;;;;;;;;;;
2023/08/23 09:33:37;;;;;;;4.53;2.58;;;;;;;;;;4993888;28;20096;-81
2023/08/23 09:36:46;;;;;;;8.93;4.25;;;;;;;;;;5039935;28;20033;-79
2023/08/23 09:42:13;;;;;;;6.40;3.53;;;;;;;;;;5044398;28;20041;-79
2023/08/23 09:44:50;;;;;;;8.57;3.60;;;;;;;;;;5063855;28;20029;-79
2023/08/23 09:47:21;;;;;;;5.75;3.33;;;;;;;;;;5043464;28;20040;-80
2023/08/23 09:49:51;;;;;;;8.05;3.17;;;;;;;;;;5048147;28;20029;-80
2023/08/23 09:52:34;;;;;;;;;;;;;;;;;;;;;
2023/08/23 09:55:19;;;;;;;6.97;3.13;;;;;;;;;;5056640;28;20097;-80
2023/08/23 09:57:47;;;;;;;5.00;3.10;;;;;;;;;;5008567;28;20074;-80
2023/08/23 10:00:23;;;;;;;10.13;3.15;;;;;;;;;;5031115;28;20374;-78
2023/08/23 10:03:07;;;;;;;8.30;3.60;;;;;;;;;;5019297;28;20030;-77
2023/08/23 10:05:36;;;;;;;9.13;3.88;;;;;;;;;;5015373;28;20045;-80
2023/08/23 10:08:35;;;;;;;5.22;3.42;;;;;;;;;;5010114;28;20504;-81
2023/08/23 10:11:41;;;;;;;7.78;3.20;;;;;;;;;;5021584;28;20030;-80
2023/08/23 10:14:36;;;;;;;5.45;3.17;;;;;;;;;;5020290;28;20018;-80
2023/08/23 10:17:27;;;;;;;;;;;;;;;;;;;;;
2023/08/23 10:20:14;;;;;;;5.10;3.60;;;;;;;;;;5017200;28;20044;-79
2023/08/23 10:22:42;;;;;;;11.95;3.42;;;;;;;;;;5017431;28;20061;-77
2023/08/23 10:25:27;;;;;;;4.57;3.08;;;;;;;;;;5017185;28;20038;-76
2023/08/23 10:27:57;;;;;;;7.45;3.55;;;;;;;;;;5021342;28;20025;-76
2023/08/23 10:30:33;;;;;;;12.00;4.05;;;;;;;;;;5014209;28;20030;-79
2023/08/23 10:33:49;;;;;;;7.38;3.65;;;;;;;;;;5020760;28;20061;-77
2023/08/23 10:36:23;;;;;;;8.40;3.30;;;;;;;;;;5018774;28;20107;-76
2023/08/23 10:39:05;;;;;;;6.68;3.78;;;;;;;;;;5018004;28;20449;-75
2023/08/23 10:41:47;;;;;;;;;;;;;;;;;;;;;
2023/08/23 10:44:23;;;;;;;7.18;3.35;;;;;;;;;;5028410;28;20104;-78
2023/08/23 10:46:54;;;;;;;7.70;3.67;;;;;;;;;;5013834;28;20068;-76
2023/08/23 10:49:43;;;;;;;8.20;3.95;;;;;;;;;;5022218;28;20101;-80
2023/08/23 10:52:30;;;;;;;7.45;3.60;;;;;;;;;;5012034;28;20042;-78
2023/08/23 10:55:31;;;;;;;4.35;3.72;;;;;;;;;;5019143;28;20626;-78
2023/08/23 10:58:00;;;;;;;5.65;3.60;;;;;;;;;;5017026;28;20037;-79
2023/08/23 11:00:56;;;;;;;5.57;3.80;;;;;;;;;;5034281;28;20703;-78
2023/08/23 11:03:58;;;;;;;5.15;3.42;;;;;;;;;;5015457;28;20029;-79
2023/08/23 11:06:49;;;;;;;9.07;3.67;;;;;;;;;;5039155;28;20049;-80
2023/08/23 11:10:25;;;;;;;7.07;4.10;;;;;;;;;;5038647;28;20434;-79
2023/08/23 11:12:32;;;;;;;6.60;3.80;;;;;;;;;;5027149;28;20026;-77
2023/08/23 11:15:26;;;;;;;;;;;;;;;;;;;;;
2023/08/23 11:21:56;;;;;;;9.93;3.38;;;;;;;;;;5042792;28;20033;-78
2023/08/23 11:24:40;;;;;;;;;;;;;;;;;;;;;
2023/08/23 11:28:17;;;;;;;;;;;;;;;;;;;;;
2023/08/23 11:30:31;;;;;;;7.80;3.63;;;;;;;;;;5027060;28;20425;-79
2023/08/23 11:33:07;;;;;;;5.03;2.97;;;;;;;;;;5031568;28;20022;-78
2023/08/23 11:35:43;;;;;;;5.57;3.03;;;;;;;;;;5019256;28;20033;-76
2023/08/23 11:38:11;;;;;;;4.97;2.75;;;;;;;;;;5019274;28;20038;-77
2023/08/23 11:40:46;;;;;;;5.35;2.85;;;;;;;;;;5029656;28;20026;-78
2023/08/23 11:43:28;;;;;;;;;;;;;;;;;;;;;
2023/08/23 11:46:37;;;;;;;7.25;3.45;;;;;;;;;;5027254;28;20125;-76
2023/08/23 11:49:15;;;;;;;10.10;3.03;;;;;;;;;;5023545;28;20017;-77
2023/08/23 11:52:19;;;;;;;6.07;3.13;;;;;;;;;;5022952;28;20044;-77
2023/08/23 11:55:29;;;;;;;;;;;;;;;;;;;;;
2023/08/23 11:58:01;;;;;;;6.27;3.10;;;;;;;;;;5067911;28;20123;-79
2023/08/23 12:00:48;;;;;;;;;;;;;;;;;;;;;
2023/08/23 12:03:16;;;;;;;5.53;3.13;;;;;;;;;;5052747;28;20109;-79
2023/08/23 12:05:59;;;;;;;9.38;3.55;;;;;;;;;;5061634;28;20028;-78
2023/08/23 12:08:33;;;;;;;5.40;3.17;;;;;;;;;;5062606;28;20036;-77
2023/08/23 12:10:59;;;;;;;6.90;3.10;;;;;;;;;;5062791;28;20029;-77
2023/08/23 12:14:04;;;;;;;;;;;;;;;;;;;;;
2023/08/23 12:16:47;;;;;;;14.93;4.75;;;;;;;;;;5074696;28;20192;-77
2023/08/23 12:19:52;;;;;;;5.90;3.60;;;;;;;;;;5059498;28;20029;-77
2023/08/23 12:22:39;;;;;;;6.05;2.80;;;;;;;;;;5047884;28;20037;-75
2023/08/23 12:25:08;;;;;;;8.35;3.10;;;;;;;;;;5065133;28;20076;-77
2023/08/23 12:28:05;;;;;;;8.70;3.80;;;;;;;;;;5060754;28;20041;-76
2023/08/23 12:31:00;;;;;;;5.93;2.70;;;;;;;;;;5071652;28;20025;-79
2023/08/23 12:33:56;;;;;;;4.53;3.10;;;;;;;;;;5081525;28;20028;-80
2023/08/23 12:36:25;;;;;;;10.70;4.15;;;;;;;;;;5068827;28;20666;-76
2023/08/23 12:39:11;;;;;;;;;;;;;;;;;;;;;
2023/08/23 12:41:37;;;;;;;6.88;3.28;;;;;;;;;;5063461;28;20188;-77
2023/08/23 12:44:04;;;;;;;4.22;2.72;;;;;;;;;;5060179;28;20056;-76
2023/08/23 12:46:33;;;;;;;4.22;2.95;;;;;;;;;;5049226;28;20056;-78
2023/08/23 12:48:59;;;;;;;5.13;2.88;;;;;;;;;;5056140;28;20088;-76
2023/08/23 12:51:25;;;;;;;6.50;3.00;;;;;;;;;;5050665;28;20032;-76
2023/08/23 12:53:51;;;;;;;9.45;3.40;;;;;;;;;;5059375;28;20699;-78
2023/08/23 12:56:21;;;;;;;7.35;3.33;;;;;;;;;;5067970;28;20043;-79
2023/08/23 12:58:57;;;;;;;8.45;2.80;;;;;;;;;;5050900;28;20029;-78
2023/08/23 13:01:26;;;;;;;7.82;2.78;;;;;;;;;;5050482;28;20572;-76
2023/08/23 13:03:55;;;;;;;4.45;3.10;;;;;;;;;;5039850;28;20029;-77
2023/08/23 13:06:30;;;;;;;13.50;3.72;;;;;;;;;;5057450;28;20029;-78
2023/08/23 13:08:59;;;;;;;5.18;3.08;;;;;;;;;;5055379;28;20029;-77
2023/08/23 13:11:25;;;;;;;5.22;3.00;;;;;;;;;;5059514;28;20139;-76
2023/08/23 13:13:52;;;;;;;5.88;3.10;;;;;;;;;;5054418;28;20099;-77
2023/08/23 13:16:19;;;;;;;3.58;2.80;;;;;;;;;;5064862;28;20031;-76
2023/08/23 13:18:45;;;;;;;4.57;3.33;;;;;;;;;;5065699;28;20040;-78
2023/08/23 13:21:11;;;;;;;6.07;3.05;;;;;;;;;;5047630;28;20448;-77
2023/08/23 13:23:38;;;;;;;5.43;3.03;;;;;;;;;;5054633;28;20028;-77
2023/08/23 13:26:05;;;;;;;7.07;3.28;;;;;;;;;;5057071;28;20047;-77
2023/08/23 13:28:42;;;;;;;7.30;3.40;;;;;;;;;;5058964;28;20054;-77
2023/08/23 13:31:09;;;;;;;11.85;3.80;;;;;;;;;;5061917;28;20028;-76
2023/08/23 13:33:38;;;;;;;10.27;4.13;;;;;;;;;;5054560;28;20032;-77
2023/08/23 13:36:07;;;;;;;8.15;4.20;;;;;;;;;;5074771;28;20026;-76
2023/08/23 13:39:00;;;;;;;3.88;2.85;;;;;;;;;;5063300;28;20084;-76
2023/08/23 13:41:36;;;;;;;13.05;3.38;;;;;;;;;;5050018;28;20115;-76
2023/08/23 13:44:08;;;;;;;6.45;2.97;;;;;;;;;;5063553;28;20063;-78
2023/08/23 13:47:16;;;;;;;;;;;;;;;;;;;;;
2023/08/23 13:49:47;;;;;;;5.85;2.95;;;;;;;;;;5057845;28;20088;-78
2023/08/23 13:52:38;;;;;;;9.10;3.38;;;;;;;;;;5068428;28;20032;-76
2023/08/23 13:55:16;;;;;;;5.82;3.35;;;;;;;;;;5064912;28;20037;-76
2023/08/23 13:57:43;;;;;;;5.43;2.65;;;;;;;;;;5051448;28;20041;-76
2023/08/23 14:00:13;;;;;;;9.45;3.05;;;;;;;;;;5045441;28;20040;-77
2023/08/23 14:02:46;;;;;;;7.57;3.30;;;;;;;;;;5068403;28;20126;-77
2023/08/23 14:05:17;;;;;;;4.72;2.97;;;;;;;;;;5051009;28;20025;-77
2023/08/23 14:07:49;;;;;;;6.05;3.17;;;;;;;;;;5061416;28;20714;-75
2023/08/23 14:10:15;;;;;;;10.45;3.60;;;;;;;;;;5058842;28;20477;-76
2023/08/23 14:12:41;;;;;;;7.43;2.90;;;;;;;;;;5060049;28;20021;-77
2023/08/23 14:15:13;;;;;;;4.75;2.58;;;;;;;;;;5066176;28;20056;-77
2023/08/23 14:17:42;;;;;;;7.13;3.00;;;;;;;;;;5063610;28;20040;-77
2023/08/23 14:20:12;;;;;;;7.35;4.30;;;;;;;;;;5073567;28;20096;-76
2023/08/23 14:22:41;;;;;;;9.57;3.75;;;;;;;;;;5028381;28;20033;-79
2023/08/23 14:25:13;;;;;;;6.35;3.00;;;;;;;;;;5069198;28;20112;-77
2023/08/23 14:27:40;;;;;;;5.57;3.10;;;;;;;;;;5056127;28;20029;-77
2023/08/23 14:30:11;;;;;;;6.47;3.13;;;;;;;;;;5054994;28;20036;-76
2023/08/23 14:32:49;;;;;;;6.43;2.97;;;;;;;;;;5051926;28;20031;-76
2023/08/23 14:35:43;;;;;;;16.27;3.88;;;;;;;;;;5057387;28;20032;-78
2023/08/23 14:38:09;;;;;;;12.40;3.65;;;;;;;;;;5052098;28;20116;-78
2023/08/23 14:40:38;;;;;;;5.18;2.95;;;;;;;;;;5054302;28;20041;-78
2023/08/23 14:43:07;;;;;;;6.88;2.63;;;;;;;;;;5047180;28;20420;-77
2023/08/23 14:45:39;;;;;;;4.17;3.20;;;;;;;;;;5050863;28;20024;-79
2023/08/23 14:51:49;;;;;;;3.72;3.00;;;;;;;;;;5042992;28;20040;-79
2023/08/23 14:54:19;;;;;;;6.07;3.20;;;;;;;;;;5055360;28;20033;-78
2023/08/23 14:56:49;;;;;;;6.20;3.40;;;;;;;;;;5044906;28;20048;-79
2023/08/23 14:59:35;;;;;;;7.40;2.92;;;;;;;;;;5065645;28;20032;-78
2023/08/23 15:02:02;;;;;;;6.28;3.00;;;;;;;;;;5070277;28;20032;-78
2023/08/23 15:04:29;;;;;;;10.73;3.40;;;;;;;;;;5077937;28;20025;-77
2023/08/23 15:06:55;;;;;;;6.95;2.90;;;;;;;;;;5080342;28;20530;-77
2023/08/23 15:09:33;;;;;;;7.68;4.10;;;;;;;;;;5082765;28;20092;-78
2023/08/23 15:11:59;;;;;;;6.55;3.22;;;;;;;;;;5042037;28;20041;-78
2023/08/23 15:14:34;;;;;;;9.80;4.03;;;;;;;;;;5042424;28;20037;-78
2023/08/23 15:17:09;;;;;;;9.00;3.83;;;;;;;;;;5050239;28;20023;-78
2023/08/23 15:19:35;;;;;;;12.50;3.50;;;;;;;;;;5080775;28;20145;-79
2023/08/23 15:22:03;;;;;;;6.18;3.20;;;;;;;;;;5082120;28;20110;-78
2023/08/23 15:24:36;;;;;;;9.18;3.63;;;;;;;;;;5080392;28;20051;-77
2023/08/23 15:27:08;;;;;;;15.15;4.38;;;;;;;;;;5043666;28;20053;-78
2023/08/23 15:29:37;;;;;;;9.30;4.18;;;;;;;;;;5041796;28;20381;-78
2023/08/23 15:32:04;;;;;;;7.30;3.70;;;;;;;;;;5081394;28;20044;-77
2023/08/23 15:34:48;;;;;;;4.10;3.15;;;;;;;;;;5081614;28;20115;-77
2023/08/23 15:37:34;;;;;;;6.22;3.90;;;;;;;;;;5041496;28;20030;-76
2023/08/23 15:40:04;;;;;;;6.68;3.35;;;;;;;;;;5057739;28;20086;-78
2023/08/23 15:42:42;;;;;;;6.47;3.63;;;;;;;;;;5082319;28;20031;-79
2023/08/23 15:45:09;;;;;;;7.60;3.28;;;;;;;;;;5083066;28;20391;-78
2023/08/23 15:47:41;;;;;;;13.77;4.20;;;;;;;;;;5080807;28;20046;-78
2023/08/23 15:50:20;;;;;;;;;;;;;;;;;;;;;
2023/08/23 15:53:11;;;;;;;6.10;3.17;;;;;;;;;;5082687;28;20052;-78
2023/08/23 15:55:44;;;;;;;5.22;3.13;;;;;;;;;;5071336;28;20060;-77
2023/08/23 15:58:23;;;;;;;6.95;3.03;;;;;;;;;;5060617;28;20021;-79
2023/08/23 16:00:56;;;;;;;8.10;2.88;;;;;;;;;;5060596;28;20021;-79
2023/08/23 16:03:29;;;;;;;6.25;2.72;;;;;;;;;;5070406;28;20086;-77
2023/08/23 16:06:06;;;;;;;14.65;3.95;;;;;;;;;;5078517;28;20055;-78
2023/08/23 16:08:41;;;;;;;7.95;2.83;;;;;;;;;;5078895;28;20025;-79
2023/08/23 16:11:24;;;;;;;8.50;3.40;;;;;;;;;;5072431;28;20535;-78
2023/08/23 16:14:29;;;;;;;;;;;;;;;;;;;;;
2023/08/23 16:17:03;;;;;;;6.03;3.22;;;;;;;;;;5076848;28;20075;-79
2023/08/23 16:19:29;;;;;;;9.88;3.67;;;;;;;;;;5080798;28;20369;-79
2023/08/23 16:22:01;;;;;;;5.10;3.17;;;;;;;;;;5082430;28;20078;-77
2023/08/23 16:24:32;;;;;;;9.75;4.00;;;;;;;;;;5066738;28;20024;-79
2023/08/23 16:27:20;;;;;;;5.72;3.20;;;;;;;;;;5059810;28;20059;-76
2023/08/23 16:29:50;;;;;;;7.28;3.65;;;;;;;;;;5060597;28;20090;-78
2023/08/23 16:32:38;;;;;;;;;;;;;;;;;;;;;
2023/08/23 16:35:20;;;;;;;7.75;3.58;;;;;;;;;;5062273;28;20434;-78
2023/08/23 16:37:46;;;;;;;8.63;3.72;;;;;;;;;;5060417;28;20017;-78
2023/08/23 16:40:35;;;;;;;9.10;4.20;;;;;;;;;;5060851;28;20031;-77
2023/08/23 16:43:09;;;;;;;9.13;4.30;;;;;;;;;;5081014;28;20042;-78